Airfield :
LOGIN :

Register | Disclaimer

   EN    FR    IT 

 










Legend :    VFR   Marginal VFR   IFR   Intensive IFR   Very Intensive IFR
Visi :
Ceiling :
>= 8 km
>= 3000ft
5 to 8 km
1000 to 3000 ft
1500m to 5 km
500 to 1000 ft
800 to 1500m
200 to 500 ft
< 800m
< 200 ft
Symbols :   Thunderstorms  Fog  Heavy snow  Heavy precipitations  Wind > 20 kt
SIGMETs :     Misc.  Thunderstorms  Icing  Turbulence  Mountain Waves  Volcanic Ashes






- Airport Elevation : 306 ft
- IATA code : EMA


EGNX - Nottingham East Midlands

CURRENT METAR :
  • 170050Z 23025G35KT 9999 FEW032 06/00 Q0998

EXPIRED METARs :
  • 170020Z 22020KT 9999 FEW033 05/01 Q0998
  • 162350Z 22021G31KT 9999 FEW033 05/01 Q0998
  • 162320Z 21023KT 9999 FEW045 05/01 Q0997
  • 162250Z 22024KT 9999 SCT020 05/00 Q0997
  • 162220Z 22023KT 9999 SCT019 04/01 Q0996 RERA

TAF TAF EGNX
Valid from the 17 at 00:00 until the 18 at 00:00 UTC


162301Z 1700/1724 24018KT 9999 SCT025
TEMPO 1700/1712 25022G36KT 6000 SHRA
PROB30
TEMPO 1712/1722 28022G32KT 6000 SHRA
ATIS : +44 1332 852 852 (ext 3201)



MET'MAP, your aeronautical weather chart ! - Copyright ORBIFLY December 2007 - Disclaimer

ORBIFLY MET'MAP TEAM :

Programming & Development : Alexandra Zaïnal
Concept & original design : Baudouin d'Aumeries
Assistance for programming : Marc-Olivier Méhu
Technical & hardware support : Manuel Goepfert

Contact : metmap@orbifly.com




SOURCES & CREDITS :

   NOAA